Time;durP1;ratioP1;P1;durP2;ratioP2;P2;SDS_P1;SDS_P2;PMS_P1;PMS_P2;Temp;Humidity;BMP_temperature;BMP_pressure;BME280_temperature;BME280_humidity;BME280_pressure;Samples;Min_cycle;Max_cycle;Signal;HPM_P1;HPM_P2
2022/05/02 00:00:09;;;;;;;18.40;15.10;;;;;;;10.20;49.29;100758.23;110694;1252;23752;-79
2022/05/02 00:02:58;;;;;;;23.70;14.40;;;;;;;10.10;49.63;100759.95;110402;1254;22300;-79
2022/05/02 00:05:28;;;;;;;26.00;14.90;;;;;;;10.02;49.94;100760.29;110562;1252;21971;-77
2022/05/02 00:07:57;;;;;;;21.90;15.30;;;;;;;9.94;50.25;100759.44;110516;1252;24406;-80
2022/05/02 00:10:26;;;;;;;24.10;14.80;;;;;;;9.87;50.60;100762.39;110543;1253;23041;-78
2022/05/02 00:12:57;;;;;;;22.10;15.30;;;;;;;9.80;50.82;100760.35;110569;1251;23733;-78
2022/05/02 00:15:26;;;;;;;21.20;15.20;;;;;;;9.72;51.02;100762.75;110560;1253;23352;-78
2022/05/02 00:17:58;;;;;;;22.80;15.30;;;;;;;9.62;51.23;100758.58;110555;1252;23042;-78
2022/05/02 00:20:33;;;;;;;25.40;17.30;;;;;;;9.52;51.51;100760.27;110072;1257;21968;-78
2022/05/02 00:23:09;;;;;;;21.40;16.00;;;;;;;9.45;51.88;100759.58;110104;1257;22007;-78
2022/05/02 00:25:39;;;;;;;22.50;16.10;;;;;;;9.39;52.20;100757.48;110142;1257;21954;-78
2022/05/02 00:28:13;;;;;;;20.30;15.30;;;;;;;9.36;52.46;100754.79;110197;1258;21982;-77
2022/05/02 00:30:43;;;;;;;20.80;15.50;;;;;;;9.35;52.63;100753.19;110244;1257;21960;-79
2022/05/02 00:33:13;;;;;;;24.60;16.40;;;;;;;9.35;52.67;100753.18;110255;1258;21975;-77
2022/05/02 00:35:42;;;;;;;20.50;16.40;;;;;;;9.33;52.78;100754.41;110084;1257;21969;-77
2022/05/02 00:38:11;;;;;;;22.20;15.30;;;;;;;9.31;53.06;100755.13;109841;1252;23589;-77
2022/05/02 00:40:40;;;;;;;18.60;14.90;;;;;;;9.28;53.22;100759.59;110566;1252;23668;-77
2022/05/02 00:43:09;;;;;;;25.10;17.00;;;;;;;9.24;53.27;100761.65;110425;1253;23874;-78
2022/05/02 00:45:39;;;;;;;26.80;16.80;;;;;;;9.19;53.63;100760.15;110554;1253;23742;-77
2022/05/02 00:48:08;;;;;;;25.90;16.90;;;;;;;9.16;53.76;100756.91;110536;1253;22425;-78
2022/05/02 00:50:44;;;;;;;26.70;17.10;;;;;;;9.14;54.00;100760.96;110563;1252;22838;-79
2022/05/02 00:53:18;;;;;;;23.50;16.90;;;;;;;9.11;54.00;100761.28;110380;1251;23705;-80
2022/05/02 00:55:48;;;;;;;20.90;15.80;;;;;;;9.07;53.98;100765.36;110310;1254;21990;-80
2022/05/02 00:58:17;;;;;;;22.90;16.60;;;;;;;9.03;54.02;100759.60;110248;1257;23715;-79
2022/05/02 01:00:46;;;;;;;23.00;16.10;;;;;;;9.00;54.20;100756.27;109976;1257;22187;-79
2022/05/02 01:03:16;;;;;;;23.30;17.60;;;;;;;8.97;54.41;100758.79;110013;1258;22180;-78
2022/05/02 01:08:36;;;;;;;22.00;17.80;;;;;;;8.92;54.67;100758.53;110181;1258;22933;-79
2022/05/02 01:11:05;;;;;;;20.30;17.30;;;;;;;8.91;54.82;100760.92;109953;1257;22017;-79
2022/05/02 01:13:41;;;;;;;22.90;17.80;;;;;;;8.91;54.96;100758.67;109332;1264;21985;-78
2022/05/02 01:16:18;;;;;;;25.40;17.90;;;;;;;8.91;55.32;100760.06;109485;1257;23587;-78
2022/05/02 01:18:51;;;;;;;25.50;18.10;;;;;;;8.92;55.39;100763.83;109270;1264;21994;-78
2022/05/02 01:21:23;;;;;;;25.60;18.20;;;;;;;8.90;55.42;100757.48;109107;1270;21986;-79
2022/05/02 01:24:02;;;;;;;23.40;17.00;;;;;;;8.87;55.49;100756.73;109055;1270;23693;-79
2022/05/02 01:26:31;;;;;;;24.60;19.40;;;;;;;8.82;55.67;100757.04;109241;1267;21972;-79
2022/05/02 01:29:01;;;;;;;21.50;17.80;;;;;;;8.78;55.78;100762.16;108821;1270;22298;-80
2022/05/02 01:31:30;;;;;;;25.40;18.30;;;;;;;8.72;55.85;100750.48;108746;1270;22018;-78
2022/05/02 01:34:00;;;;;;;20.50;18.00;;;;;;;8.65;56.12;100746.02;108735;1270;21977;-78
2022/05/02 01:36:29;;;;;;;27.00;19.60;;;;;;;8.62;56.28;100746.86;108802;1267;23055;-80
2022/05/02 01:38:58;;;;;;;24.80;18.10;;;;;;;8.59;56.45;100752.02;109350;1260;22078;-79
2022/05/02 01:41:27;;;;;;;23.40;18.40;;;;;;;8.58;56.69;100747.75;109939;1261;21972;-78
2022/05/02 01:43:56;;;;;;;21.90;17.70;;;;;;;8.58;56.84;100746.88;109818;1260;23607;-78
2022/05/02 01:46:25;;;;;;;25.30;18.50;;;;;;;8.57;56.97;100745.59;109899;1254;21964;-79
2022/05/02 01:48:56;;;;;;;28.10;18.30;;;;;;;8.57;57.26;100748.89;110583;1252;23562;-78
2022/05/02 01:51:25;;;;;;;22.10;18.70;;;;;;;8.55;57.30;100752.21;110547;1252;23027;-77
2022/05/02 01:53:54;;;;;;;25.70;18.90;;;;;;;8.51;57.18;100753.67;110297;1252;22288;-77
2022/05/02 01:56:23;;;;;;;27.70;17.70;;;;;;;8.45;57.22;100753.70;110523;1252;23617;-77
2022/05/02 01:58:52;;;;;;;25.80;18.70;;;;;;;8.41;57.44;100756.88;110821;1252;22309;-77
2022/05/02 02:01:22;;;;;;;21.80;17.50;;;;;;;8.38;57.57;100755.73;110596;1254;21981;-78
2022/05/02 02:03:52;;;;;;;27.80;16.50;;;;;;;8.36;57.48;100757.16;110390;1253;21977;-78
2022/05/02 02:06:22;;;;;;;22.70;17.30;;;;;;;8.35;57.76;100754.25;110528;1252;23697;-80
2022/05/02 02:08:51;;;;;;;26.80;20.50;;;;;;;8.34;57.89;100755.09;109680;1257;21974;-77
2022/05/02 02:11:21;;;;;;;21.50;17.90;;;;;;;8.30;57.91;100754.18;110311;1257;23026;-78
2022/05/02 02:13:50;;;;;;;26.80;19.00;;;;;;;8.26;57.95;100748.50;109739;1261;21981;-79
2022/05/02 02:16:19;;;;;;;26.10;19.20;;;;;;;8.20;58.04;100748.09;109676;1261;21981;-78
2022/05/02 02:18:48;;;;;;;24.40;17.70;;;;;;;8.17;58.28;100747.02;109869;1260;22041;-79
2022/05/02 02:21:18;;;;;;;25.00;17.90;;;;;;;8.13;58.39;100747.59;109854;1261;23093;-79
2022/05/02 02:23:48;;;;;;;22.30;18.20;;;;;;;8.09;58.44;100739.14;109950;1261;22754;-79
2022/05/02 02:26:17;;;;;;;24.50;19.90;;;;;;;8.06;58.52;100737.54;109569;1261;22007;-78
2022/05/02 02:28:47;;;;;;;23.20;17.60;;;;;;;8.04;58.80;100734.14;109699;1260;22033;-78
2022/05/02 02:31:18;;;;;;;27.20;18.70;;;;;;;8.05;58.97;100732.98;109635;1260;22382;-79
2022/05/02 02:33:47;;;;;;;23.30;18.90;;;;;;;8.07;59.07;100732.89;109846;1260;22562;-79
2022/05/02 02:36:17;;;;;;;25.90;20.00;;;;;;;8.07;59.02;100731.98;109211;1264;22060;-80
2022/05/02 02:38:46;;;;;;;25.70;19.80;;;;;;;8.06;59.09;100730.48;109369;1263;23087;-78
2022/05/02 02:41:16;;;;;;;24.70;19.90;;;;;;;8.03;59.13;100730.60;109214;1264;22756;-79
2022/05/02 02:43:48;;;;;;;27.90;20.10;;;;;;;7.97;59.27;100730.97;108792;1266;24421;-80
2022/05/02 02:46:18;;;;;;;24.60;18.80;;;;;;;7.90;59.23;100732.51;109414;1264;22029;-79
2022/05/02 02:48:48;;;;;;;25.50;18.80;;;;;;;7.83;59.38;100726.31;109685;1264;22004;-83
2022/05/02 02:51:17;;;;;;;25.00;18.50;;;;;;;7.77;59.46;100726.44;109394;1267;23697;-82
2022/05/02 02:53:48;;;;;;;27.80;19.80;;;;;;;7.75;59.81;100724.85;109344;1263;22210;-81
2022/05/02 02:56:18;;;;;;;25.90;20.10;;;;;;;7.75;60.06;100724.85;109769;1263;21997;-83
2022/05/02 02:58:47;;;;;;;27.70;20.10;;;;;;;7.75;60.13;100726.27;109318;1264;22025;-82
2022/05/02 03:01:17;;;;;;;28.00;19.70;;;;;;;7.74;60.21;100725.13;109518;1257;23022;-78
2022/05/02 03:03:47;;;;;;;30.80;19.60;;;;;;;7.71;60.33;100728.60;110023;1257;22061;-78
2022/05/02 03:06:16;;;;;;;27.50;20.00;;;;;;;7.67;60.52;100735.98;110269;1258;21975;-78
2022/05/02 03:08:47;;;;;;;25.70;19.10;;;;;;;7.63;60.73;100742.00;109430;1257;21981;-77
2022/05/02 03:11:16;;;;;;;26.30;19.30;;;;;;;7.61;61.05;100742.34;110218;1260;21968;-78
2022/05/02 03:13:46;;;;;;;23.00;18.10;;;;;;;7.61;61.22;100740.25;109851;1257;21962;-78
2022/05/02 03:16:15;;;;;;;27.80;19.10;;;;;;;7.63;61.32;100740.04;109688;1259;23059;-78
2022/05/02 03:18:45;;;;;;;33.80;19.20;;;;;;;7.65;61.42;100742.45;110268;1257;23025;-79
2022/05/02 03:21:14;;;;;;;26.60;18.60;;;;;;;7.69;61.56;100743.49;109804;1260;22424;-78
2022/05/02 03:23:43;;;;;;;22.60;18.50;;;;;;;7.73;61.75;100743.98;109826;1257;22037;-78
2022/05/02 03:26:12;;;;;;;28.10;19.40;;;;;;;7.77;61.75;100746.24;110086;1252;23145;-77
2022/05/02 03:28:41;;;;;;;25.80;19.80;;;;;;;7.80;61.86;100743.73;110043;1258;22699;-78
2022/05/02 03:31:11;;;;;;;20.70;17.60;;;;;;;7.80;61.72;100743.17;109928;1258;21960;-79
2022/05/02 03:33:40;;;;;;;26.20;21.60;;;;;;;7.78;61.68;100738.30;109992;1257;23589;-78
2022/05/02 03:36:10;;;;;;;22.80;18.90;;;;;;;7.77;61.68;100732.44;109623;1261;22998;-79
2022/05/02 03:38:39;;;;;;;29.40;18.90;;;;;;;7.77;61.78;100736.61;109595;1261;23148;-78
2022/05/02 03:41:09;;;;;;;31.80;20.00;;;;;;;7.79;61.78;100736.44;109322;1260;23632;-79
2022/05/02 03:43:38;;;;;;;27.30;19.90;;;;;;;7.82;61.84;100733.07;109584;1261;21975;-79
2022/05/02 03:46:08;;;;;;;24.80;19.60;;;;;;;7.85;61.91;100735.22;108939;1267;23055;-79
2022/05/02 03:48:37;;;;;;;25.60;18.90;;;;;;;7.89;62.00;100733.48;109381;1264;23042;-79
2022/05/02 03:51:07;;;;;;;22.30;19.30;;;;;;;7.93;62.08;100732.13;109205;1264;21976;-79
2022/05/02 03:53:36;;;;;;;24.30;18.20;;;;;;;7.98;62.24;100727.64;109283;1260;22810;-79
2022/05/02 03:56:05;;;;;;;24.20;18.80;;;;;;;8.05;62.43;100724.66;109954;1260;23705;-78
2022/05/02 03:58:35;;;;;;;24.90;19.20;;;;;;;8.10;62.50;100722.97;109681;1260;21986;-79
2022/05/02 04:01:05;;;;;;;25.90;19.70;;;;;;;8.14;62.48;100724.42;109685;1260;22086;-78
2022/05/02 04:03:35;;;;;;;30.30;19.00;;;;;;;8.21;62.66;100729.44;109712;1255;21958;-78
2022/05/02 04:06:05;;;;;;;24.60;19.50;;;;;;;8.30;62.72;100731.05;110549;1252;21962;-79
2022/05/02 04:08:34;;;;;;;27.30;18.80;;;;;;;8.39;62.54;100729.16;110578;1252;23046;-79
2022/05/02 04:11:03;;;;;;;25.60;18.20;;;;;;;8.49;62.57;100731.75;110474;1252;22182;-79
2022/05/02 04:13:32;;;;;;;25.00;17.10;;;;;;;8.61;62.61;100729.40;110506;1252;21980;-78
2022/05/02 04:16:01;;;;;;;26.10;18.50;;;;;;;8.74;62.53;100733.29;110495;1252;22849;-78
2022/05/02 04:18:31;;;;;;;26.50;19.70;;;;;;;8.85;62.45;100735.50;110513;1252;21959;-80
2022/05/02 04:21:00;;;;;;;28.60;18.80;;;;;;;8.96;62.33;100734.83;110427;1252;23400;-78
2022/05/02 04:23:29;;;;;;;28.50;20.20;;;;;;;9.04;62.03;100734.35;110397;1254;21972;-77
2022/05/02 04:25:58;;;;;;;29.00;18.90;;;;;;;9.13;62.12;100738.58;110321;1255;23625;-79
2022/05/02 04:28:28;;;;;;;27.10;19.10;;;;;;;9.24;62.05;100739.08;110580;1252;21958;-77
2022/05/02 04:30:57;;;;;;;26.10;18.80;;;;;;;9.36;61.89;100743.91;110516;1252;22612;-78
2022/05/02 04:33:26;;;;;;;27.80;21.60;;;;;;;9.49;61.63;100743.66;109821;1259;22731;-78
2022/05/02 04:35:55;;;;;;;24.40;18.90;;;;;;;9.64;61.43;100749.77;110232;1256;21963;-75
2022/05/02 04:38:28;;;;;;;26.50;18.70;;;;;;;9.80;61.14;100748.02;110342;1256;22006;-76
2022/05/02 04:40:58;;;;;;;23.60;19.90;;;;;;;9.95;60.97;100744.73;110224;1256;21969;-76
2022/05/02 04:43:27;;;;;;;25.60;19.30;;;;;;;10.11;60.80;100742.05;110433;1256;22069;-77
2022/05/02 04:45:56;;;;;;;26.90;19.40;;;;;;;10.28;60.55;100740.39;109871;1256;22031;-78
2022/05/02 04:48:25;;;;;;;22.30;19.60;;;;;;;10.42;60.17;100739.31;110305;1256;23585;-78
2022/05/02 04:50:55;;;;;;;26.70;19.10;;;;;;;10.60;60.07;100742.63;110003;1256;22002;-78
2022/05/02 04:53:24;;;;;;;26.30;19.10;;;;;;;10.78;59.80;100740.54;110457;1256;22325;-77
2022/05/02 04:55:53;;;;;;;25.20;18.30;;;;;;;10.94;59.19;100742.02;110334;1256;23731;-77
2022/05/02 04:58:22;;;;;;;30.80;18.70;;;;;;;11.10;58.73;100743.38;110378;1251;23567;-77
2022/05/02 05:00:52;;;;;;;23.80;18.00;;;;;;;11.23;58.23;100743.67;110741;1251;21957;-76
2022/05/02 05:03:22;;;;;;;22.20;16.90;;;;;;;11.39;57.94;100751.16;110938;1250;21962;-76
2022/05/02 05:05:54;;;;;;;27.10;18.00;;;;;;;11.57;57.78;100759.91;110758;1251;21958;-77
2022/05/02 05:08:23;;;;;;;23.00;17.60;;;;;;;11.78;57.77;100759.04;110615;1250;21958;-77
2022/05/02 05:11:39;;;;;;;25.70;17.50;;;;;;;12.02;57.49;100760.17;110753;1250;23749;-77
2022/05/02 05:18:26;;;;;;;16.60;14.50;;;;;;;12.55;56.36;100750.63;110717;1253;22757;-77
2022/05/02 05:21:22;;;;;;;20.60;15.60;;;;;;;12.91;56.38;100751.17;110632;1253;22717;-77
2022/05/02 05:24:53;;;;;;;17.00;15.10;;;;;;;13.28;55.29;100758.25;110783;1250;23702;-76
2022/05/02 05:27:50;;;;;;;15.90;14.00;;;;;;;13.70;54.57;100758.02;110846;1250;21956;-76
2022/05/02 05:30:21;;;;;;;17.90;16.00;;;;;;;14.10;54.12;100751.05;110719;1253;23067;-79
2022/05/02 05:33:44;;;;;;;19.00;15.40;;;;;;;14.52;53.34;100748.91;110827;1253;24414;-79
2022/05/02 05:36:49;;;;;;;20.00;17.60;;;;;;;14.92;52.25;100740.23;110433;1256;21966;-80
2022/05/02 05:39:39;;;;;;;19.10;14.50;;;;;;;15.31;51.18;100742.14;110350;1256;21982;-80
2022/05/02 05:42:45;;;;;;;21.20;16.00;;;;;;;15.70;50.53;100743.39;110208;1259;21972;-80
2022/05/02 05:45:59;;;;;;;15.30;13.70;;;;;;;16.01;48.95;100743.91;110394;1257;22028;-81
2022/05/02 05:49:14;;;;;;;25.50;13.40;;;;;;;16.30;48.20;100745.30;110231;1259;22317;-82
2022/05/02 05:52:03;;;;;;;18.80;13.90;;;;;;;16.50;46.82;100744.86;110406;1257;22002;-80
2022/05/02 05:54:39;;;;;;;19.20;14.00;;;;;;;16.65;46.08;100749.08;110211;1259;23673;-80
2022/05/02 05:57:32;;;;;;;17.50;13.80;;;;;;;16.80;45.58;100750.79;110192;1259;23026;-80
2022/05/02 06:00:13;;;;;;;19.20;13.00;;;;;;;16.98;45.40;100753.21;110521;1256;23689;-81
2022/05/02 06:03:00;;;;;;;20.00;13.60;;;;;;;17.17;44.88;100754.48;110445;1259;21968;-81
2022/05/02 06:05:35;;;;;;;15.70;13.10;;;;;;;17.30;44.49;100754.66;109646;1263;22997;-83
2022/05/02 06:08:09;;;;;;;14.70;12.30;;;;;;;17.58;44.69;100757.62;109457;1265;22039;-82
2022/05/02 06:10:39;;;;;;;15.40;12.90;;;;;;;17.79;43.10;100758.69;109422;1264;22537;-81
2022/05/02 06:13:10;;;;;;;15.30;13.60;;;;;;;17.88;42.69;100754.50;109882;1256;22004;-81
2022/05/02 06:18:38;;;;;;;19.10;13.60;;;;;;;18.33;42.96;100756.83;110053;1260;22013;-82
2022/05/02 06:21:08;;;;;;;29.90;18.50;;;;;;;18.70;42.57;100752.64;109330;1268;22024;-81
2022/05/02 06:23:47;;;;;;;16.60;12.80;;;;;;;19.07;41.87;100752.28;109524;1260;22531;-80
2022/05/02 06:26:21;;;;;;;22.10;13.90;;;;;;;19.38;40.56;100750.01;109265;1267;22095;-82
2022/05/02 06:28:52;;;;;;;18.70;12.90;;;;;;;19.54;39.48;100749.27;109397;1265;22341;-80
2022/05/02 06:31:33;;;;;;;16.50;14.40;;;;;;;19.73;39.35;100750.23;109527;1264;22070;-83
2022/05/02 06:34:07;;;;;;;18.60;14.50;;;;;;;19.92;38.82;100748.20;109679;1265;23726;-85
2022/05/02 06:36:56;;;;;;;18.20;15.50;;;;;;;20.09;38.66;100745.35;109488;1265;24371;-82
2022/05/02 06:39:45;;;;;;;19.10;15.00;;;;;;;20.30;38.12;100743.70;109556;1259;22994;-78
2022/05/02 06:42:34;;;;;;;19.60;13.90;;;;;;;20.47;37.60;100742.86;110196;1258;22014;-79
2022/05/02 06:45:34;;;;;;;17.80;15.50;;;;;;;20.63;37.31;100741.00;110490;1250;22006;-80
2022/05/02 06:48:33;;;;;;;18.80;14.00;;;;;;;20.82;37.10;100741.94;110253;1256;259864;-79
2022/05/02 06:51:13;;;;;;;14.50;13.00;;;;;;;21.08;36.98;100748.92;109381;1262;22976;-79
2022/05/02 06:54:26;;;;;;;17.70;15.60;;;;;;;21.29;36.45;100750.45;109240;1264;22039;-79
2022/05/02 06:57:10;;;;;;;15.90;14.30;;;;;;;21.57;36.22;100749.69;109007;1270;22433;-80
2022/05/02 07:00:10;;;;;;;17.20;14.40;;;;;;;21.83;35.87;100755.91;108412;1276;22006;-80
2022/05/02 07:03:42;;;;;;;22.50;15.10;;;;;;;22.04;35.24;100753.63;108323;1279;22004;-79
2022/05/02 07:06:45;;;;;;;15.90;14.20;;;;;;;22.26;34.80;100752.47;108464;1273;23689;-79
2022/05/02 07:09:29;;;;;;;20.20;15.60;;;;;;;22.46;34.39;100750.16;108719;1266;22212;-81
2022/05/02 07:12:16;;;;;;;27.80;16.90;;;;;;;22.49;33.76;100750.14;109142;1268;22293;-81
2022/05/02 07:15:26;;;;;;;19.20;13.10;;;;;;;22.58;33.93;100751.83;109234;1268;23046;-79
2022/05/02 07:18:15;;;;;;;18.30;14.00;;;;;;;22.75;33.84;100754.31;109407;1264;23123;-78
2022/05/02 07:21:27;;;;;;;20.80;14.10;;;;;;;22.88;33.44;100750.48;109829;1259;22289;-78
2022/05/02 07:24:07;;;;;;;;;;;;;;;23.05;33.33;100751.02;110370;1259;23564;-77
2022/05/02 07:26:38;;;;;;;18.80;14.30;;;;;;;23.19;33.23;100747.17;109937;1259;23817;-76
2022/05/02 07:29:09;;;;;;;18.70;15.30;;;;;;;23.43;32.77;100743.98;109764;1260;21969;-79
2022/05/02 07:31:40;;;;;;;16.30;12.10;;;;;;;23.64;32.07;100741.17;110066;1256;21985;-79
2022/05/02 07:34:12;;;;;;;14.00;12.60;;;;;;;23.84;31.69;100743.34;109780;1261;21959;-78
2022/05/02 07:36:51;;;;;;;12.90;11.30;;;;;;;24.00;31.22;100740.98;109498;1264;23123;-78
2022/05/02 07:39:24;;;;;;;12.10;10.40;;;;;;;24.12;30.53;100741.11;109204;1264;21995;-78
2022/05/02 07:41:55;;;;;;;17.10;11.20;;;;;;;24.23;30.24;100740.73;109442;1261;21985;-79
2022/05/02 07:44:33;;;;;;;16.70;10.80;;;;;;;24.29;29.69;100741.67;109614;1261;22073;-79
2022/05/02 07:47:04;;;;;;;14.00;10.90;;;;;;;24.33;29.29;100744.00;109315;1261;22784;-77
2022/05/02 07:49:34;;;;;;;;;;;;;;;24.30;29.12;100745.84;109395;1261;22330;-78
2022/05/02 07:52:05;;;;;;;15.60;9.60;;;;;;;24.23;29.31;100745.63;109136;1267;22085;-79
2022/05/02 07:54:41;;;;;;;26.00;11.50;;;;;;;24.31;29.42;100743.05;108936;1266;22001;-78
2022/05/02 07:57:14;;;;;;;12.20;9.90;;;;;;;24.50;29.49;100740.09;108542;1273;21988;-78
2022/05/02 07:59:46;;;;;;;13.90;10.60;;;;;;;24.73;29.35;100736.27;108650;1269;23636;-78
2022/05/02 08:02:16;;;;;;;64.60;16.10;;;;;;;25.01;28.99;100736.20;109011;1266;22055;-78
2022/05/02 08:04:47;;;;;;;23.80;12.10;;;;;;;25.18;28.85;100737.86;109023;1266;21999;-78
2022/05/02 08:07:36;;;;;;;11.60;9.30;;;;;;;25.26;28.19;100737.40;109104;1266;23108;-79
2022/05/02 08:10:43;;;;;;;17.40;11.00;;;;;;;24.97;28.16;100737.19;108976;1264;23600;-77
2022/05/02 08:14:07;;;;;;;23.20;11.10;;;;;;;24.75;28.29;100736.39;109274;1263;22324;-77
2022/05/02 08:16:46;;;;;;;15.10;10.30;;;;;;;24.55;28.40;100734.27;109807;1262;23707;-78
2022/05/02 08:20:27;;;;;;;12.90;10.50;;;;;;;24.40;28.65;100733.95;109295;1261;22041;-78
2022/05/02 08:27:25;;;;;;;12.60;9.60;;;;;;;23.89;29.19;100728.41;107947;1285;23086;-78
2022/05/02 08:30:19;;;;;;;21.40;10.80;;;;;;;23.88;29.46;100730.55;107543;1289;22022;-78
2022/05/02 08:33:05;;;;;;;12.10;8.80;;;;;;;23.98;30.06;100731.51;107105;1289;23613;-78
2022/05/02 08:35:45;;;;;;;15.00;9.70;;;;;;;24.10;29.68;100733.38;107513;1288;22536;-79
2022/05/02 08:38:54;;;;;;;15.80;9.80;;;;;;;24.05;29.53;100731.41;107650;1288;22442;-78
2022/05/02 08:42:26;;;;;;;12.00;10.10;;;;;;;24.03;29.79;100728.29;108050;1282;23078;-78
2022/05/02 08:45:58;;;;;;;10.00;9.00;;;;;;;24.14;29.72;100729.91;108181;1279;24438;-78
2022/05/02 08:52:15;;;;;;;;;;;;;;;24.70;28.78;100730.29;108337;1279;23171;-78
2022/05/02 08:55:28;;;;;;;14.70;8.70;;;;;;;24.94;28.69;100727.36;108340;1279;23713;-77
2022/05/02 08:58:42;;;;;;;8.60;7.40;;;;;;;25.06;28.00;100727.38;107882;1285;22003;-79
2022/05/02 09:02:12;;;;;;;14.20;8.20;;;;;;;25.10;27.59;100726.75;108313;1278;21975;-77
2022/05/02 09:05:05;;;;;;;11.90;7.60;;;;;;;25.20;27.18;100724.90;108059;1280;24328;-77
2022/05/02 09:08:12;;;;;;;10.20;7.30;;;;;;;25.38;26.80;100723.29;108064;1282;21987;-77
2022/05/02 09:11:33;;;;;;;7.60;6.80;;;;;;;25.59;25.98;100722.10;107965;1282;23077;-78
2022/05/02 09:15:03;;;;;;;8.90;7.20;;;;;;;25.82;25.28;100722.56;107981;1282;23182;-78
2022/05/02 09:18:00;;;;;;;7.80;6.40;;;;;;;26.03;25.21;100721.48;107957;1282;22000;-78
2022/05/02 09:20:32;;;;;;;10.80;6.50;;;;;;;26.20;24.61;100721.25;108324;1277;23077;-79
2022/05/02 09:23:37;;;;;;;14.00;6.40;;;;;;;26.27;24.28;100721.82;108641;1270;24050;-78
2022/05/02 09:26:07;;;;;;;11.30;5.80;;;;;;;26.41;24.32;100716.10;108723;1273;23139;-79
2022/05/02 09:28:56;;;;;;;8.50;5.40;;;;;;;26.69;23.76;100713.80;108905;1265;22869;-77
2022/05/02 09:31:58;;;;;;;5.90;5.10;;;;;;;26.93;22.41;100712.83;108752;1267;24568;-78
2022/05/02 09:34:58;;;;;;;6.00;4.90;;;;;;;27.04;21.48;100709.98;109166;1267;21988;-79
2022/05/02 09:37:56;;;;;;;11.30;5.60;;;;;;;27.01;21.78;100704.16;109027;1267;21984;-78
2022/05/02 09:40:41;;;;;;;9.90;5.10;;;;;;;27.18;22.01;100703.35;109111;1267;21986;-78
2022/05/02 09:50:03;;;;;;;8.20;6.20;;;;;;;27.72;21.51;100687.98;109440;1264;21986;-78
2022/05/02 09:53:10;;;;;;;14.80;6.60;;;;;;;27.63;21.69;100690.06;109367;1263;22974;-78
2022/05/02 09:59:30;;;;;;;6.90;5.10;;;;;;;27.62;21.38;100688.53;109432;1264;21970;-77
2022/05/02 10:02:12;;;;;;;11.60;5.20;;;;;;;27.57;21.30;100677.84;109625;1261;22055;-78
2022/05/02 10:05:05;;;;;;;8.10;5.10;;;;;;;27.52;21.48;100678.45;109897;1261;22902;-79
2022/05/02 10:08:13;;;;;;;7.00;5.90;;;;;;;27.56;21.47;100674.65;109978;1260;22066;-78
2022/05/02 10:10:45;;;;;;;7.50;5.50;;;;;;;27.67;21.15;100674.64;110093;1260;21963;-77
2022/05/02 10:13:54;;;;;;;7.20;5.00;;;;;;;27.73;20.72;100672.63;110261;1260;21984;-81
2022/05/02 10:17:12;;;;;;;6.30;4.80;;;;;;;27.72;20.87;100665.83;110082;1261;23077;-78
2022/05/02 10:20:24;;;;;;;;;;;;;;;;;;;;;
2022/05/02 10:24:16;;;;;;;7.70;4.90;;;;;;;27.39;21.38;100656.17;110666;1252;24621;-81
2022/05/02 10:27:53;;;;;;;9.60;5.80;;;;;;;27.23;21.70;100649.88;109609;1264;23613;-79
2022/05/02 10:31:05;;;;;;;5.20;4.30;;;;;;;27.19;21.21;100647.48;108907;1269;21982;-77
2022/05/02 10:33:56;;;;;;;;;;;;;;;;;;;;;
2022/05/02 10:37:04;;;;;;;9.90;5.10;;;;;;;26.98;21.37;100642.52;109074;1270;21982;-80
2022/05/02 10:40:12;;;;;;;8.70;4.60;;;;;;;26.88;21.15;100640.61;109208;1270;21990;-82
2022/05/02 10:43:11;;;;;;;7.50;4.90;;;;;;;26.56;21.10;100638.90;108493;1276;22000;-83
2022/05/02 10:45:41;;;;;;;6.90;4.60;;;;;;;26.38;20.99;100634.66;108463;1273;21987;-77
2022/05/02 10:48:44;;;;;;;7.80;4.80;;;;;;;26.20;20.66;100632.48;108511;1273;24318;-78
2022/05/02 10:51:32;;;;;;;9.10;5.10;;;;;;;25.84;20.82;100631.05;108749;1273;21984;-78
2022/05/02 10:54:27;;;;;;;8.50;5.70;;;;;;;25.49;21.38;100626.98;108418;1277;23617;-78
2022/05/02 10:57:20;;;;;;;8.30;5.20;;;;;;;25.18;21.47;100623.55;108442;1276;22030;-78
2022/05/02 10:59:52;;;;;;;6.40;5.10;;;;;;;24.91;21.39;100621.08;108638;1274;23601;-77
2022/05/02 11:02:41;;;;;;;10.70;5.00;;;;;;;24.70;21.89;100617.54;108807;1267;23696;-78
2022/05/02 11:05:28;;;;;;;6.80;4.90;;;;;;;24.52;22.24;100618.69;109480;1264;21975;-78
2022/05/02 11:08:37;;;;;;;9.90;5.00;;;;;;;24.34;22.63;100613.45;109219;1265;23677;-78
2022/05/02 11:11:19;;;;;;;7.10;4.80;;;;;;;24.20;22.46;100613.72;109252;1264;21978;-76
2022/05/02 11:14:16;;;;;;;5.80;4.90;;;;;;;24.04;22.30;100616.16;110148;1261;23111;-83
2022/05/02 11:20:41;;;;;;;7.90;4.50;;;;;;;23.82;22.25;100609.55;109887;1261;22090;-82
2022/05/02 11:21:39;;;;;;;10.50;5.40;;;;;;;23.68;22.35;100609.62;110933;1252;23595;-80
2022/05/02 11:28:04;;;;;;;7.30;4.10;;;;;;;23.23;22.99;100603.86;110000;1258;23855;-78
2022/05/02 11:31:25;;;;;;;8.10;4.70;;;;;;;23.16;23.30;100598.57;109938;1259;22025;-78
2022/05/02 11:34:32;;;;;;;11.20;4.50;;;;;;;23.05;23.23;100594.36;110350;1257;21967;-78
2022/05/02 11:37:14;;;;;;;8.10;5.90;;;;;;;22.93;23.32;100587.52;110150;1258;22779;-78
2022/05/02 11:40:11;;;;;;;8.30;4.70;;;;;;;22.86;23.39;100584.64;110197;1259;23008;-78
2022/05/02 11:42:46;;;;;;;7.00;4.00;;;;;;;22.81;23.65;100582.92;109485;1261;21963;-78
2022/05/02 11:45:17;;;;;;;15.40;5.40;;;;;;;22.79;23.99;100585.70;109995;1259;21955;-76
2022/05/02 11:48:05;;;;;;;10.10;4.50;;;;;;;22.79;23.67;100583.06;110045;1260;23596;-81
2022/05/02 11:51:16;;;;;;;;;;;;;;;;;;;;;
2022/05/02 11:54:39;;;;;;;6.80;4.60;;;;;;;22.48;23.37;100577.71;109380;1267;21954;-84
2022/05/02 11:57:28;;;;;;;7.90;4.60;;;;;;;22.43;23.80;100573.20;109122;1268;21974;-81
2022/05/02 12:00:17;;;;;;;5.70;4.40;;;;;;;22.36;23.95;100568.81;109178;1267;22000;-82
2022/05/02 12:03:44;;;;;;;4.70;3.70;;;;;;;22.29;24.23;100566.06;109541;1264;23694;-79
2022/05/02 12:06:47;;;;;;;4.80;4.00;;;;;;;22.30;24.45;100562.79;109644;1264;22522;-77
2022/05/02 12:09:23;;;;;;;7.90;4.90;;;;;;;22.35;24.77;100558.79;109162;1266;22193;-78
2022/05/02 12:12:01;;;;;;;4.70;3.80;;;;;;;22.39;24.54;100554.13;109525;1258;22018;-80
2022/05/02 12:14:40;;;;;;;8.80;4.70;;;;;;;22.37;24.40;100546.34;109276;1265;23767;-79
2022/05/02 12:17:13;;;;;;;5.50;4.10;;;;;;;22.33;24.46;100543.13;109565;1265;21980;-77
2022/05/02 12:19:47;;;;;;;6.40;4.20;;;;;;;22.19;24.36;100541.02;108841;1270;22074;-78
2022/05/02 12:22:24;;;;;;;6.60;5.20;;;;;;;22.10;24.71;100540.20;108687;1271;23005;-78
2022/05/02 12:25:03;;;;;;;8.00;4.80;;;;;;;22.13;24.94;100540.73;108760;1270;23622;-78
2022/05/02 12:27:34;;;;;;;7.40;4.30;;;;;;;22.14;25.05;100535.87;108780;1268;21972;-78
2022/05/02 12:30:20;;;;;;;6.90;3.70;;;;;;;22.09;25.21;100536.30;109096;1267;22128;-78
2022/05/02 12:32:54;;;;;;;7.70;5.00;;;;;;;22.07;25.33;100532.55;109482;1259;22116;-78
2022/05/02 12:35:25;;;;;;;5.80;4.20;;;;;;;22.09;25.17;100524.77;109608;1262;23734;-78
2022/05/02 12:37:56;;;;;;;6.90;4.70;;;;;;;22.13;25.05;100522.27;109761;1260;23155;-77
2022/05/02 12:40:27;;;;;;;6.10;3.70;;;;;;;22.09;25.15;100525.61;110270;1258;21969;-78
2022/05/02 12:43:19;;;;;;;4.90;3.70;;;;;;;22.09;25.20;100521.92;109325;1262;21984;-77
2022/05/02 12:46:06;;;;;;;5.20;4.00;;;;;;;21.99;25.27;100520.19;109711;1261;21984;-78
2022/05/02 12:48:49;;;;;;;5.10;4.50;;;;;;;21.91;25.51;100520.19;109708;1262;21978;-76
2022/05/02 12:51:21;;;;;;;7.20;3.80;;;;;;;21.88;25.44;100511.77;109529;1262;23602;-77
2022/05/02 12:54:12;;;;;;;7.10;4.50;;;;;;;21.88;25.64;100510.16;109198;1262;21974;-77